createdAt,value
2023-04-29T00:02:01.632Z,0.35
2023-04-29T00:04:29.942Z,0.60
2023-04-29T00:06:58.106Z,0.35
2023-04-29T00:09:26.039Z,0.95
2023-04-29T00:11:55.510Z,0.40
2023-04-29T00:14:23.428Z,1.80
2023-04-29T00:16:51.625Z,1.73
2023-04-29T00:19:20.610Z,4.82
2023-04-29T00:21:48.909Z,4.70
2023-04-29T00:24:17.945Z,1.45
2023-04-29T00:26:46.498Z,1.38
2023-04-29T00:29:16.208Z,3.90
2023-04-29T00:31:44.249Z,1.80
2023-04-29T00:34:12.704Z,1.10
2023-04-29T00:36:42.034Z,0.40
2023-04-29T00:39:09.991Z,0.77
2023-04-29T00:41:38.901Z,0.82
2023-04-29T00:44:07.794Z,0.60
2023-04-29T00:46:37.325Z,0.88
2023-04-29T00:49:05.648Z,0.60
2023-04-29T00:51:34.436Z,0.85
2023-04-29T00:54:02.399Z,0.70
2023-04-29T00:56:33.200Z,0.65
2023-04-29T00:59:03.435Z,0.98
2023-04-29T01:01:31.666Z,2.15
2023-04-29T01:04:01.494Z,0.75
2023-04-29T01:06:40.210Z,1.58
2023-04-29T01:09:23.295Z,0.85
2023-04-29T01:11:59.751Z,2.08
2023-04-29T01:14:27.864Z,0.75
2023-04-29T01:17:01.114Z,1.30
2023-04-29T01:19:41.854Z,0.93
2023-04-29T01:22:10.359Z,0.63
2023-04-29T01:24:39.855Z,0.50
2023-04-29T01:27:19.549Z,0.80
2023-04-29T01:29:56.652Z,1.48
2023-04-29T01:32:34.981Z,1.08
2023-04-29T01:35:16.991Z,1.00
2023-04-29T01:37:56.882Z,1.27
2023-04-29T01:40:31.104Z,4.75
2023-04-29T01:43:15.444Z,2.72
2023-04-29T01:45:46.898Z,1.58
2023-04-29T01:48:17.533Z,1.50
2023-04-29T01:50:46.067Z,0.80
2023-04-29T01:53:16.336Z,1.20
2023-04-29T01:55:46.964Z,1.00
2023-04-29T01:58:23.704Z,1.00
2023-04-29T02:01:03.492Z,2.60
2023-04-29T02:03:34.177Z,0.73
2023-04-29T02:06:04.371Z,1.38
2023-04-29T02:08:32.374Z,0.63
2023-04-29T02:11:03.249Z,0.95
2023-04-29T02:13:49.275Z,1.30
2023-04-29T02:16:17.672Z,1.48
2023-04-29T02:18:52.084Z,0.95
2023-04-29T02:21:21.698Z,1.48
2023-04-29T02:23:50.301Z,2.33
2023-04-29T02:26:20.132Z,0.60
2023-04-29T02:28:48.510Z,1.10
2023-04-29T02:31:16.413Z,1.40
2023-04-29T02:33:48.822Z,1.50
2023-04-29T02:36:17.665Z,2.08
2023-04-29T02:38:45.537Z,0.82
2023-04-29T02:41:19.080Z,0.98
2023-04-29T02:43:49.771Z,1.35
2023-04-29T02:46:18.759Z,1.13
2023-04-29T02:48:46.860Z,3.92
2023-04-29T02:51:16.207Z,1.40
2023-04-29T02:53:44.163Z,1.52
2023-04-29T02:56:12.780Z,0.77
2023-04-29T02:58:42.306Z,1.40
2023-04-29T03:01:10.256Z,1.92
2023-04-29T03:03:38.572Z,1.77
2023-04-29T03:06:06.646Z,1.20
2023-04-29T03:08:35.623Z,1.00
2023-04-29T03:11:03.574Z,1.98
2023-04-29T03:13:31.979Z,1.50
2023-04-29T03:16:01.659Z,1.40
2023-04-29T03:18:29.654Z,1.00
2023-04-29T03:20:57.580Z,2.97
2023-04-29T03:23:26.785Z,1.33
2023-04-29T03:25:55.986Z,1.05
2023-04-29T03:28:24.888Z,1.08
2023-04-29T03:30:52.807Z,1.08
2023-04-29T03:33:22.087Z,0.98
2023-04-29T03:35:50.428Z,1.02
2023-04-29T03:38:25.921Z,1.60
2023-04-29T03:40:55.257Z,1.35
2023-04-29T03:43:23.144Z,1.63
2023-04-29T03:45:51.528Z,1.85
2023-04-29T03:48:24.132Z,0.90
2023-04-29T03:50:53.559Z,3.03
2023-04-29T03:53:21.975Z,1.55
2023-04-29T03:55:52.545Z,1.20
2023-04-29T03:58:20.988Z,1.80
2023-04-29T04:00:48.984Z,2.03
2023-04-29T04:03:25.758Z,2.40
2023-04-29T04:05:55.398Z,1.15
2023-04-29T04:08:23.315Z,1.67
2023-04-29T04:11:04.631Z,1.85
2023-04-29T04:13:36.960Z,3.53
2023-04-29T04:16:08.447Z,1.27
2023-04-29T04:18:39.178Z,1.88
2023-04-29T04:21:07.850Z,2.83
2023-04-29T04:23:38.043Z,3.65
2023-04-29T04:26:06.053Z,4.32
2023-04-29T04:29:02.965Z,6.82
2023-04-29T04:31:40.189Z,5.40
2023-04-29T04:34:10.845Z,6.45
2023-04-29T04:36:39.155Z,4.43
2023-04-29T04:39:07.609Z,5.18
2023-04-29T04:41:35.842Z,3.08
2023-04-29T04:44:04.126Z,3.35
2023-04-29T04:46:43.443Z,3.40
2023-04-29T04:49:19.599Z,3.47
2023-04-29T04:51:52.983Z,4.25
2023-04-29T04:54:20.956Z,3.08
2023-04-29T04:56:53.147Z,2.38
2023-04-29T04:59:21.528Z,2.63
2023-04-29T05:01:49.708Z,1.73
2023-04-29T05:04:19.075Z,1.90
2023-04-29T05:06:47.478Z,1.75
2023-04-29T05:09:16.204Z,3.10
2023-04-29T05:11:44.197Z,3.35
2023-04-29T05:14:15.046Z,3.03
2023-04-29T05:16:43.657Z,1.75
2023-04-29T05:19:11.756Z,1.77
2023-04-29T05:21:43.073Z,4.30
2023-04-29T05:24:12.502Z,5.20
2023-04-29T05:26:40.652Z,5.05
2023-04-29T05:29:08.752Z,4.03
2023-04-29T05:31:46.329Z,2.60
2023-04-29T05:34:14.239Z,2.65
2023-04-29T05:36:43.823Z,2.13
2023-04-29T05:39:11.846Z,1.50
2023-04-29T05:41:39.786Z,1.77
2023-04-29T05:44:07.624Z,1.48
2023-04-29T05:46:35.742Z,1.92
2023-04-29T05:49:03.979Z,1.20
2023-04-29T05:51:32.786Z,1.52
2023-04-29T05:54:02.097Z,2.10
2023-04-29T05:56:32.094Z,1.55
2023-04-29T05:59:00.044Z,3.10
2023-04-29T06:01:28.225Z,1.30
2023-04-29T06:03:59.474Z,1.02
2023-04-29T06:06:33.364Z,1.75
2023-04-29T06:09:24.252Z,1.70
2023-04-29T06:11:56.389Z,1.77
2023-04-29T06:14:24.424Z,1.48
2023-04-29T06:16:53.722Z,1.20
2023-04-29T06:19:21.717Z,1.13
2023-04-29T06:21:50.534Z,1.20
2023-04-29T06:24:20.179Z,2.50
2023-04-29T06:26:48.789Z,2.08
2023-04-29T06:29:17.146Z,2.17
2023-04-29T06:31:45.629Z,1.10
2023-04-29T06:34:13.845Z,1.65
2023-04-29T06:37:00.110Z,2.50
2023-04-29T06:40:09.926Z,3.25
2023-04-29T06:43:00.687Z,2.80
2023-04-29T06:45:47.805Z,2.58
2023-04-29T06:48:21.275Z,4.80
2023-04-29T06:50:53.782Z,2.70
2023-04-29T06:53:22.423Z,4.30
2023-04-29T06:55:51.975Z,2.67
2023-04-29T06:58:21.487Z,3.38
2023-04-29T07:00:50.766Z,4.65
2023-04-29T07:03:19.885Z,2.90
2023-04-29T07:05:48.507Z,4.28
2023-04-29T07:08:16.429Z,6.28
2023-04-29T07:10:44.362Z,2.67
2023-04-29T07:13:13.676Z,4.03
2023-04-29T07:15:43.212Z,2.75
2023-04-29T07:18:11.270Z,2.72
2023-04-29T07:20:39.309Z,3.92
2023-04-29T07:23:07.342Z,2.60
2023-04-29T07:25:35.907Z,3.83
2023-04-29T07:28:06.809Z,3.10
2023-04-29T07:30:36.493Z,2.92
2023-04-29T07:33:05.747Z,3.70
2023-04-29T07:35:34.100Z,5.30
2023-04-29T07:38:02.024Z,3.08
2023-04-29T07:40:31.979Z,3.70
2023-04-29T07:43:04.669Z,2.50
2023-04-29T07:45:32.687Z,3.97
2023-04-29T07:48:02.961Z,2.85
2023-04-29T07:50:31.439Z,3.50
2023-04-29T07:53:00.452Z,4.90
2023-04-29T07:55:30.976Z,8.90
2023-04-29T07:58:00.722Z,2.55
2023-04-29T08:00:29.496Z,4.60
2023-04-29T08:02:58.392Z,3.28
2023-04-29T08:05:28.930Z,5.38
2023-04-29T08:07:57.036Z,4.57
2023-04-29T08:10:27.302Z,3.30
2023-04-29T08:12:56.096Z,2.70
2023-04-29T08:15:24.202Z,4.45
2023-04-29T08:17:52.347Z,5.88
2023-04-29T08:20:20.505Z,4.57
2023-04-29T08:22:49.756Z,5.45
2023-04-29T08:25:17.944Z,5.40
2023-04-29T08:27:45.988Z,2.20
2023-04-29T08:30:14.302Z,2.78
2023-04-29T08:32:42.397Z,2.55
2023-04-29T08:35:11.177Z,2.90
2023-04-29T08:37:39.140Z,1.65
2023-04-29T08:40:10.104Z,2.85
2023-04-29T08:42:38.920Z,1.92
2023-04-29T08:45:07.465Z,1.75
2023-04-29T08:47:35.601Z,2.20
2023-04-29T08:50:05.548Z,8.80
2023-04-29T08:52:33.936Z,3.35
2023-04-29T08:55:02.572Z,2.72
2023-04-29T08:57:39.585Z,3.55
2023-04-29T09:00:10.144Z,2.60
2023-04-29T09:02:42.991Z,2.78
2023-04-29T09:05:12.106Z,1.67
2023-04-29T09:07:40.639Z,1.92
2023-04-29T09:10:09.770Z,2.70
2023-04-29T09:12:39.122Z,2.33
2023-04-29T09:15:08.061Z,2.03
2023-04-29T09:17:40.848Z,2.13
2023-04-29T09:20:27.387Z,2.60
2023-04-29T09:22:56.926Z,1.92
2023-04-29T09:25:25.077Z,1.48
2023-04-29T09:27:54.446Z,1.88
2023-04-29T09:30:22.502Z,1.33
2023-04-29T09:33:07.935Z,2.35
2023-04-29T09:35:36.222Z,1.88
2023-04-29T09:38:12.425Z,3.03
2023-04-29T09:40:57.636Z,2.70
2023-04-29T09:43:28.622Z,3.78
2023-04-29T09:45:56.969Z,2.92
2023-04-29T09:48:33.655Z,1.50
2023-04-29T09:51:03.302Z,2.13
2023-04-29T09:53:32.402Z,2.28
2023-04-29T09:56:02.217Z,1.83
2023-04-29T09:58:37.060Z,2.50
2023-04-29T10:01:06.347Z,2.65
2023-04-29T10:03:35.930Z,3.15
2023-04-29T10:06:05.764Z,1.45
2023-04-29T10:08:34.861Z,1.85
2023-04-29T10:11:04.251Z,1.20
2023-04-29T10:13:38.398Z,1.40
2023-04-29T10:16:16.497Z,2.55
2023-04-29T10:18:50.917Z,2.65
2023-04-29T10:21:21.946Z,2.20
2023-04-29T10:23:50.936Z,2.08
2023-04-29T10:26:20.542Z,2.60
2023-04-29T10:28:52.495Z,1.38
2023-04-29T10:31:22.761Z,2.87
2023-04-29T10:33:51.642Z,1.05
2023-04-29T10:36:20.958Z,1.48
2023-04-29T10:38:52.702Z,2.53
2023-04-29T10:41:24.765Z,2.13
2023-04-29T10:43:54.261Z,3.78
2023-04-29T10:46:23.675Z,2.05
2023-04-29T10:48:55.450Z,2.17
2023-04-29T10:51:32.684Z,4.07
2023-04-29T10:54:05.164Z,2.88
2023-04-29T10:56:41.049Z,3.00
2023-04-29T10:59:14.251Z,3.90
2023-04-29T11:01:47.128Z,2.92
2023-04-29T11:04:15.839Z,1.75
2023-04-29T11:06:47.247Z,4.07
2023-04-29T11:09:19.983Z,2.33
2023-04-29T11:11:52.180Z,2.67
2023-04-29T11:14:26.916Z,1.70
2023-04-29T11:16:57.245Z,1.85
2023-04-29T11:19:26.995Z,3.13
2023-04-29T11:22:13.328Z,2.78
2023-04-29T11:24:52.723Z,3.50
2023-04-29T11:27:25.179Z,2.30
2023-04-29T11:30:03.068Z,2.60
2023-04-29T11:32:33.044Z,2.05
2023-04-29T11:35:11.953Z,1.50
2023-04-29T11:37:41.117Z,2.58
2023-04-29T11:40:10.066Z,3.63
2023-04-29T11:42:42.363Z,4.68
2023-04-29T11:45:12.564Z,3.90
2023-04-29T11:47:44.886Z,3.15
2023-04-29T11:50:13.639Z,2.30
2023-04-29T11:52:41.725Z,1.98
2023-04-29T11:55:10.732Z,1.90
2023-04-29T11:57:39.130Z,1.95
2023-04-29T12:00:11.706Z,2.28
2023-04-29T12:02:40.239Z,3.15
2023-04-29T12:05:09.382Z,2.17
2023-04-29T12:07:37.477Z,3.55
2023-04-29T12:10:10.148Z,1.60
2023-04-29T12:12:40.715Z,2.75
2023-04-29T12:15:11.506Z,1.88
2023-04-29T12:17:40.282Z,2.33
2023-04-29T12:20:10.410Z,1.98
2023-04-29T12:22:38.731Z,4.07
2023-04-29T12:25:08.148Z,2.28
2023-04-29T12:27:36.645Z,2.28
2023-04-29T12:30:09.510Z,1.58
2023-04-29T12:32:39.835Z,1.35
2023-04-29T12:35:16.384Z,2.38
2023-04-29T12:37:44.334Z,1.50
2023-04-29T12:40:16.796Z,3.65
2023-04-29T12:42:45.074Z,1.33
2023-04-29T12:45:30.777Z,1.20
2023-04-29T12:48:01.474Z,3.08
2023-04-29T12:50:34.356Z,1.50
2023-04-29T12:53:03.694Z,4.32
2023-04-29T12:55:34.368Z,2.47
2023-04-29T12:58:03.562Z,1.63
2023-04-29T13:00:32.163Z,1.15
2023-04-29T13:03:02.330Z,2.30
2023-04-29T13:05:30.487Z,2.15
2023-04-29T13:07:58.437Z,1.10
2023-04-29T13:10:28.281Z,1.85
2023-04-29T13:12:56.828Z,1.60
2023-04-29T13:15:27.211Z,3.95
2023-04-29T13:17:58.885Z,2.70
2023-04-29T13:20:28.486Z,2.25
2023-04-29T13:22:56.458Z,3.15
2023-04-29T13:25:24.393Z,1.55
2023-04-29T13:27:52.282Z,1.45
2023-04-29T13:30:20.167Z,2.33
2023-04-29T13:32:55.167Z,1.20
2023-04-29T13:35:28.024Z,1.00
2023-04-29T13:37:56.488Z,1.23
2023-04-29T13:40:27.847Z,1.30
2023-04-29T13:43:04.906Z,1.73
2023-04-29T13:45:38.832Z,1.20
2023-04-29T13:48:22.881Z,2.25
2023-04-29T13:51:34.508Z,1.35
2023-04-29T13:54:37.305Z,1.60
2023-04-29T13:59:38.105Z,1.02
2023-04-29T14:04:23.051Z,1.05
2023-04-29T14:06:52.539Z,1.20
2023-04-29T14:09:21.122Z,1.02
2023-04-29T14:11:49.555Z,1.55
2023-04-29T14:14:18.224Z,0.95
2023-04-29T14:16:46.156Z,1.10
2023-04-29T14:19:14.064Z,0.75
2023-04-29T14:21:42.028Z,0.93
2023-04-29T14:24:11.340Z,1.67
2023-04-29T14:26:39.576Z,1.15
2023-04-29T14:29:07.514Z,1.60
2023-04-29T14:31:37.969Z,1.27
2023-04-29T14:34:06.360Z,0.80
2023-04-29T14:36:34.393Z,1.42
2023-04-29T14:39:03.876Z,2.95
2023-04-29T14:41:34.707Z,1.55
2023-04-29T14:44:02.645Z,2.65
2023-04-29T14:46:32.339Z,0.85
2023-04-29T14:49:00.279Z,1.20
2023-04-29T14:51:28.401Z,0.80
2023-04-29T14:53:56.448Z,1.13
2023-04-29T14:56:24.382Z,1.67
2023-04-29T14:58:53.682Z,1.25
2023-04-29T15:01:21.617Z,1.08
2023-04-29T15:03:49.723Z,0.90
2023-04-29T15:06:17.798Z,2.25
2023-04-29T15:08:45.675Z,4.93
2023-04-29T15:11:13.546Z,0.90
2023-04-29T15:13:41.455Z,1.08
2023-04-29T15:16:11.085Z,0.98
2023-04-29T15:18:39.284Z,1.20
2023-04-29T15:21:07.830Z,2.15
2023-04-29T15:23:35.731Z,1.88
2023-04-29T15:26:03.718Z,1.10
2023-04-29T15:28:31.631Z,1.85
2023-04-29T15:31:01.805Z,1.27
2023-04-29T15:33:31.286Z,1.15
2023-04-29T15:35:59.152Z,1.05
2023-04-29T15:38:27.179Z,2.75
2023-04-29T15:41:00.532Z,1.27
2023-04-29T15:45:56.747Z,1.83
2023-04-29T15:48:24.920Z,1.15
2023-04-29T15:50:54.488Z,1.35
2023-04-29T15:53:23.195Z,1.48
2023-04-29T15:55:51.148Z,2.00
2023-04-29T15:58:19.073Z,1.60
2023-04-29T16:00:47.063Z,1.30
2023-04-29T16:03:15.141Z,1.30
2023-04-29T16:05:43.135Z,4.18
2023-04-29T16:08:12.403Z,1.67
2023-04-29T16:10:40.333Z,1.15
2023-04-29T16:13:08.367Z,1.95
2023-04-29T16:15:36.631Z,1.40
2023-04-29T16:18:04.973Z,1.42
2023-04-29T16:20:33.523Z,1.35
2023-04-29T16:23:01.437Z,2.70
2023-04-29T16:25:30.669Z,1.48
2023-04-29T16:27:58.695Z,2.72
2023-04-29T16:30:28.096Z,1.38
2023-04-29T16:32:56.101Z,1.58
2023-04-29T16:35:26.389Z,1.10
2023-04-29T16:37:55.472Z,1.65
2023-04-29T16:40:24.002Z,2.20
2023-04-29T16:42:54.250Z,1.42
2023-04-29T16:45:23.875Z,1.27
2023-04-29T16:47:52.131Z,1.70
2023-04-29T16:50:20.236Z,1.67
2023-04-29T16:52:48.670Z,1.52
2023-04-29T16:55:16.833Z,1.63
2023-04-29T16:57:44.749Z,1.40
2023-04-29T17:00:14.787Z,1.92
2023-04-29T17:02:45.181Z,1.33
2023-04-29T17:05:13.418Z,1.83
2023-04-29T17:07:41.559Z,2.75
2023-04-29T17:10:11.371Z,1.60
2023-04-29T17:12:39.881Z,1.60
2023-04-29T17:15:08.855Z,1.88
2023-04-29T17:17:38.211Z,2.70
2023-04-29T17:20:07.507Z,1.83
2023-04-29T17:22:35.615Z,3.40
2023-04-29T17:25:03.943Z,2.08
2023-04-29T17:27:32.116Z,2.58
2023-04-29T17:30:00.008Z,3.60
2023-04-29T17:32:29.476Z,2.05
2023-04-29T17:34:59.893Z,1.98
2023-04-29T17:37:30.260Z,2.97
2023-04-29T17:39:58.199Z,3.03
2023-04-29T17:42:26.949Z,2.40
2023-04-29T17:44:54.863Z,2.88
2023-04-29T17:47:23.308Z,2.55
2023-04-29T17:49:51.938Z,2.08
2023-04-29T17:52:22.990Z,2.35
2023-04-29T17:54:50.879Z,3.70
2023-04-29T17:57:18.840Z,2.30
2023-04-29T17:59:47.081Z,2.42
2023-04-29T18:02:15.023Z,3.13
2023-04-29T18:04:42.964Z,3.85
2023-04-29T18:07:11.296Z,3.45
2023-04-29T18:09:40.554Z,3.28
2023-04-29T18:12:08.522Z,4.47
2023-04-29T18:14:39.165Z,6.13
2023-04-29T18:17:07.316Z,3.53
2023-04-29T18:19:35.429Z,4.75
2023-04-29T18:22:03.363Z,4.07
2023-04-29T18:24:31.232Z,3.20
2023-04-29T18:27:00.597Z,3.92
2023-04-29T18:29:28.533Z,4.95
2023-04-29T18:31:56.449Z,5.68
2023-04-29T18:34:24.422Z,5.90
2023-04-29T18:36:52.971Z,7.80
2023-04-29T18:39:20.922Z,5.57
2023-04-29T18:41:48.993Z,5.80
2023-04-29T18:44:18.243Z,5.82
2023-04-29T18:46:46.137Z,6.75
2023-04-29T18:49:16.775Z,6.03
2023-04-29T18:51:46.559Z,5.65
2023-04-29T18:54:16.208Z,6.10
2023-04-29T18:56:46.442Z,7.45
2023-04-29T18:59:18.880Z,5.90
2023-04-29T19:01:48.968Z,7.18
2023-04-29T19:04:17.452Z,6.97
2023-04-29T19:06:46.109Z,7.90
2023-04-29T19:09:14.519Z,6.07
2023-04-29T19:11:42.407Z,5.95
2023-04-29T19:14:10.385Z,7.68
2023-04-29T19:16:38.232Z,5.72
2023-04-29T19:19:07.646Z,6.18
2023-04-29T19:21:36.565Z,6.13
2023-04-29T19:24:04.564Z,6.40
2023-04-29T19:26:35.045Z,7.00
2023-04-29T19:29:04.675Z,7.18
2023-04-29T19:31:32.637Z,7.47
2023-04-29T19:34:00.944Z,7.25
2023-04-29T19:36:30.181Z,6.97
2023-04-29T19:38:58.285Z,7.50
2023-04-29T19:41:26.261Z,6.97
2023-04-29T19:43:54.194Z,6.30
2023-04-29T19:46:22.118Z,6.00
2023-04-29T19:48:53.764Z,6.80
2023-04-29T19:51:21.942Z,6.43
2023-04-29T19:53:52.368Z,7.07
2023-04-29T19:56:20.679Z,6.47
2023-04-29T19:58:49.236Z,5.32
2023-04-29T20:01:17.406Z,5.13
2023-04-29T20:03:45.463Z,7.03
2023-04-29T20:06:17.232Z,6.68
2023-04-29T20:08:45.526Z,5.88
2023-04-29T20:11:14.758Z,5.50
2023-04-29T20:13:42.647Z,8.38
2023-04-29T20:16:11.101Z,7.18
2023-04-29T20:18:40.784Z,6.75
2023-04-29T20:21:08.685Z,9.02
2023-04-29T20:23:36.616Z,7.25
2023-04-29T20:26:04.673Z,7.28
2023-04-29T20:28:34.008Z,8.15
2023-04-29T20:31:02.535Z,7.13
2023-04-29T20:33:30.421Z,7.43
2023-04-29T20:36:05.351Z,8.85
2023-04-29T20:38:35.175Z,5.18
2023-04-29T20:41:03.473Z,6.35
2023-04-29T20:43:33.172Z,7.65
2023-04-29T20:46:02.950Z,6.38
2023-04-29T20:48:30.934Z,7.75
2023-04-29T20:50:58.887Z,7.38
2023-04-29T20:53:26.907Z,5.55
2023-04-29T20:55:54.748Z,5.25
2023-04-29T20:58:22.646Z,5.43
2023-04-29T21:00:51.967Z,6.15
2023-04-29T21:03:22.342Z,7.20
2023-04-29T21:05:54.436Z,6.35
2023-04-29T21:08:22.467Z,6.28
2023-04-29T21:10:51.051Z,4.45
2023-04-29T21:13:19.104Z,5.35
2023-04-29T21:15:47.276Z,6.10
2023-04-29T21:18:16.854Z,4.65
2023-04-29T21:20:46.236Z,5.28
2023-04-29T21:23:14.235Z,5.80
2023-04-29T21:25:42.154Z,6.32
2023-04-29T21:28:10.120Z,7.03
2023-04-29T21:30:38.110Z,4.35
2023-04-29T21:33:06.283Z,5.38
2023-04-29T21:35:35.563Z,6.60
2023-04-29T21:38:03.444Z,6.35
2023-04-29T21:40:31.406Z,7.53
2023-04-29T21:43:00.538Z,6.20
2023-04-29T21:45:28.496Z,5.57
2023-04-29T21:47:58.972Z,5.90
2023-04-29T21:50:26.869Z,6.47
2023-04-29T21:52:56.080Z,6.85
2023-04-29T21:55:23.957Z,5.50
2023-04-29T21:57:51.820Z,6.40
2023-04-29T22:00:32.746Z,6.57
2023-04-29T22:03:01.430Z,5.50
2023-04-29T22:05:29.452Z,5.55
2023-04-29T22:08:00.994Z,5.88
2023-04-29T22:10:28.992Z,7.70
2023-04-29T22:12:57.397Z,6.00
2023-04-29T22:15:28.856Z,7.10
2023-04-29T22:17:58.082Z,6.72
2023-04-29T22:20:26.761Z,5.90
2023-04-29T22:22:55.138Z,6.70
2023-04-29T22:25:24.664Z,6.13
2023-04-29T22:27:52.864Z,7.38
2023-04-29T22:30:20.879Z,6.45
2023-04-29T22:32:48.988Z,7.20
2023-04-29T22:35:16.979Z,6.22
2023-04-29T22:37:44.923Z,6.20
2023-04-29T22:40:14.122Z,8.55
2023-04-29T22:42:43.402Z,5.80
2023-04-29T22:45:13.243Z,6.68
2023-04-29T22:47:41.145Z,7.72
2023-04-29T22:50:10.109Z,6.60
2023-04-29T22:52:38.036Z,7.53
2023-04-29T22:55:07.034Z,7.55
2023-04-29T22:57:35.013Z,7.28
2023-04-29T23:00:04.563Z,10.90
2023-04-29T23:02:32.574Z,8.77
2023-04-29T23:05:00.913Z,7.63
2023-04-29T23:07:28.948Z,6.22
2023-04-29T23:09:56.986Z,8.80
2023-04-29T23:12:25.315Z,8.20
2023-04-29T23:14:53.416Z,8.63
2023-04-29T23:17:22.790Z,8.25
2023-04-29T23:19:50.688Z,10.50
2023-04-29T23:22:18.611Z,7.85
2023-04-29T23:24:46.600Z,10.73
2023-04-29T23:27:14.427Z,8.55
2023-04-29T23:29:42.297Z,9.85
2023-04-29T23:32:10.782Z,8.63
2023-04-29T23:34:40.005Z,7.95
2023-04-29T23:37:07.947Z,8.35
2023-04-29T23:39:35.849Z,8.20
2023-04-29T23:42:03.838Z,8.98
2023-04-29T23:44:31.730Z,7.18
2023-04-29T23:46:59.656Z,7.57
2023-04-29T23:49:28.504Z,7.60
2023-04-29T23:51:58.874Z,9.63
2023-04-29T23:54:26.851Z,6.53
2023-04-29T23:56:54.752Z,7.97
2023-04-29T23:59:22.651Z,7.93
